createdAt,value
2019-03-24T00:00:14.945Z,99419.33
2019-03-24T00:01:25.041Z,99419.08
2019-03-24T00:02:33.016Z,99419.93
2019-03-24T00:03:41.200Z,99420.17
2019-03-24T00:04:49.235Z,99416.55
2019-03-24T00:05:57.169Z,99414.28
2019-03-24T00:07:05.136Z,99423.20
2019-03-24T00:08:13.483Z,99415.57
2019-03-24T00:09:21.587Z,99415.90
2019-03-24T00:10:29.551Z,99414.93
2019-03-24T00:11:37.859Z,99409.73
2019-03-24T00:12:46.061Z,99412.88
2019-03-24T00:13:54.700Z,99414.56
2019-03-24T00:15:02.714Z,99413.12
2019-03-24T00:16:10.985Z,99407.59
2019-03-24T00:17:19.213Z,99415.45
2019-03-24T00:18:27.228Z,99406.98
2019-03-24T00:19:35.321Z,99409.28
2019-03-24T00:20:43.330Z,99408.31
2019-03-24T00:21:51.590Z,99410.01
2019-03-24T00:22:59.572Z,99406.14
2019-03-24T00:24:07.518Z,99405.17
2019-03-24T00:25:15.673Z,99401.05
2019-03-24T00:26:23.776Z,99396.66
2019-03-24T00:27:32.104Z,99397.63
2019-03-24T00:28:40.047Z,99401.91
2019-03-24T00:29:48.065Z,99398.60
2019-03-24T00:30:56.211Z,99391.58
2019-03-24T00:32:04.342Z,99389.41
2019-03-24T00:33:12.201Z,99393.52
2019-03-24T00:34:20.194Z,99393.76
2019-03-24T00:35:28.611Z,99393.64
2019-03-24T00:36:36.607Z,99387.95
2019-03-24T00:37:44.503Z,99388.92
2019-03-24T00:38:52.494Z,99385.78
2019-03-24T00:40:00.834Z,99387.59
2019-03-24T00:41:09.009Z,99383.35
2019-03-24T00:42:16.898Z,99381.42
2019-03-24T00:43:25.228Z,99378.97
2019-03-24T00:44:33.287Z,99378.59
2019-03-24T00:45:41.509Z,99386.86
2019-03-24T00:46:49.682Z,99389.52
2019-03-24T00:47:59.944Z,99379.84
2019-03-24T00:49:07.998Z,99382.02
2019-03-24T00:50:16.242Z,99386.10
2019-03-24T00:51:24.241Z,99389.89
2019-03-24T00:52:32.345Z,99381.78
2019-03-24T00:53:40.231Z,99389.16
2019-03-24T00:54:48.240Z,99392.91
2019-03-24T00:55:56.260Z,99385.73
2019-03-24T00:57:04.636Z,99395.66
2019-03-24T00:58:12.578Z,99401.58
2019-03-24T00:59:20.915Z,99400.61
2019-03-24T01:00:50.850Z,99395.89
2019-03-24T01:01:59.027Z,99394.73
2019-03-24T01:03:07.239Z,99388.15
2019-03-24T01:04:17.085Z,99374.36
2019-03-24T01:05:25.027Z,99371.98
2019-03-24T01:06:32.890Z,99388.80
2019-03-24T01:07:41.894Z,99384.44
2019-03-24T01:08:50.075Z,99393.88
2019-03-24T01:09:58.452Z,99389.31
2019-03-24T01:11:06.899Z,99385.09
2019-03-24T01:12:14.868Z,99380.25
2019-03-24T01:13:22.715Z,99387.75
2019-03-24T01:14:30.714Z,99388.48
2019-03-24T01:15:47.330Z,99374.20
2019-03-24T01:16:48.788Z,99373.67
2019-03-24T01:17:57.441Z,99373.80
2019-03-24T01:19:05.813Z,99373.20
2019-03-24T01:20:14.010Z,99372.23
2019-03-24T01:21:21.941Z,99373.44
2019-03-24T01:22:30.205Z,99375.25
2019-03-24T01:23:38.127Z,99377.06
2019-03-24T01:24:46.274Z,99383.72
2019-03-24T01:25:54.451Z,99373.56
2019-03-24T01:27:02.853Z,99373.67
2019-03-24T01:28:11.073Z,99378.36
2019-03-24T01:29:18.813Z,99382.34
2019-03-24T01:30:27.080Z,99386.34
2019-03-24T01:31:35.400Z,99390.72
2019-03-24T01:32:43.511Z,99391.22
2019-03-24T01:33:51.576Z,99386.54
2019-03-24T01:34:59.894Z,99389.69
2019-03-24T01:36:08.097Z,99395.66
2019-03-24T01:37:16.144Z,99392.51
2019-03-24T01:38:24.289Z,99392.35
2019-03-24T01:39:32.422Z,99405.77
2019-03-24T01:40:40.462Z,99399.20
2019-03-24T01:41:48.662Z,99401.94
2019-03-24T01:42:56.719Z,99404.71
2019-03-24T01:44:04.701Z,99402.85
2019-03-24T01:45:12.949Z,99402.01
2019-03-24T01:46:21.022Z,99401.92
2019-03-24T01:47:29.114Z,99396.84
2019-03-24T01:48:37.177Z,99398.91
2019-03-24T01:49:45.316Z,99399.14
2019-03-24T01:50:53.404Z,99394.67
2019-03-24T01:52:01.420Z,99394.80
2019-03-24T01:53:09.560Z,99389.96
2019-03-24T01:54:17.849Z,99394.39
2019-03-24T01:55:25.981Z,99394.62
2019-03-24T01:56:34.452Z,99393.53
2019-03-24T01:57:42.957Z,99391.44
2019-03-24T01:58:51.162Z,99395.42
2019-03-24T01:59:59.571Z,99389.86
2019-03-24T02:01:07.875Z,99389.49
2019-03-24T02:02:16.475Z,99390.70
2019-03-24T02:03:24.660Z,99389.38
2019-03-24T02:04:33.179Z,99386.72
2019-03-24T02:05:41.468Z,99391.92
2019-03-24T02:06:49.674Z,99393.53
2019-03-24T02:07:58.086Z,99397.17
2019-03-24T02:09:08.588Z,99393.66
2019-03-24T02:10:16.961Z,99399.70
2019-03-24T02:11:25.143Z,99398.37
2019-03-24T02:12:33.145Z,99399.51
2019-03-24T02:13:40.955Z,99410.75
2019-03-24T02:14:48.812Z,99416.91
2019-03-24T02:15:57.023Z,99414.25
2019-03-24T02:17:05.320Z,99419.94
2019-03-24T02:18:13.839Z,99424.90
2019-03-24T02:19:22.156Z,99429.37
2019-03-24T02:20:30.535Z,99432.03
2019-03-24T02:21:38.637Z,99433.08
2019-03-24T02:22:46.929Z,99438.68
2019-03-24T02:23:55.578Z,99436.70
2019-03-24T02:25:03.831Z,99439.61
2019-03-24T02:26:11.888Z,99441.05
2019-03-24T02:27:20.252Z,99439.25
2019-03-24T02:28:28.325Z,99429.57
2019-03-24T02:29:36.526Z,99437.91
2019-03-24T02:30:45.236Z,99442.27
2019-03-24T02:31:53.124Z,99453.08
2019-03-24T02:33:01.471Z,99441.11
2019-03-24T02:34:09.734Z,99453.73
2019-03-24T02:35:18.116Z,99445.63
2019-03-24T02:36:26.251Z,99447.69
2019-03-24T02:37:34.540Z,99450.72
2019-03-24T02:38:42.633Z,99453.63
2019-03-24T02:39:50.829Z,99458.02
2019-03-24T02:40:58.989Z,99459.83
2019-03-24T02:42:06.940Z,99471.88
2019-03-24T02:43:14.877Z,99468.25
2019-03-24T02:44:23.118Z,99469.59
2019-03-24T02:45:31.461Z,99460.19
2019-03-24T02:46:39.779Z,99469.02
2019-03-24T02:47:47.648Z,99470.60
2019-03-24T02:48:56.028Z,99479.23
2019-03-24T02:50:04.061Z,99468.84
2019-03-24T02:51:12.325Z,99470.53
2019-03-24T02:52:20.300Z,99477.55
2019-03-24T02:53:28.508Z,99466.79
2019-03-24T02:54:36.811Z,99473.36
2019-03-24T02:55:44.907Z,99472.02
2019-03-24T02:56:53.231Z,99464.89
2019-03-24T02:58:01.570Z,99472.88
2019-03-24T02:59:09.500Z,99466.58
2019-03-24T03:00:19.908Z,99470.34
2019-03-24T03:01:27.867Z,99475.09
2019-03-24T03:02:36.048Z,99470.14
2019-03-24T03:03:44.254Z,99476.08
2019-03-24T03:04:52.238Z,99474.26
2019-03-24T03:06:00.523Z,99474.42
2019-03-24T03:07:08.962Z,99479.62
2019-03-24T03:08:17.075Z,99480.47
2019-03-24T03:09:25.113Z,99483.38
2019-03-24T03:10:33.073Z,99481.20
2019-03-24T03:11:41.417Z,99484.34
2019-03-24T03:12:49.612Z,99485.20
2019-03-24T03:13:57.610Z,99483.87
2019-03-24T03:15:08.805Z,99482.53
2019-03-24T03:16:16.722Z,99490.52
2019-03-24T03:17:24.736Z,99490.64
2019-03-24T03:18:32.538Z,99487.02
2019-03-24T03:19:40.674Z,99492.70
2019-03-24T03:20:48.514Z,99493.09
2019-03-24T03:21:56.669Z,99498.99
2019-03-24T03:23:04.652Z,99499.63
2019-03-24T03:24:12.576Z,99502.78
2019-03-24T03:25:20.551Z,99504.36
2019-03-24T03:26:28.653Z,99508.95
2019-03-24T03:27:36.785Z,99501.56
2019-03-24T03:28:44.601Z,99504.11
2019-03-24T03:29:52.455Z,99512.67
2019-03-24T03:31:00.571Z,99510.48
2019-03-24T03:32:08.644Z,99512.22
2019-03-24T03:33:17.546Z,99511.34
2019-03-24T03:34:25.921Z,99514.97
2019-03-24T03:35:34.041Z,99521.14
2019-03-24T03:36:42.318Z,99523.06
2019-03-24T03:37:50.244Z,99522.22
2019-03-24T03:38:58.566Z,99522.70
2019-03-24T03:40:09.378Z,99526.33
2019-03-24T03:41:17.607Z,99524.16
2019-03-24T03:42:25.648Z,99528.87
2019-03-24T03:43:33.801Z,99521.86
2019-03-24T03:44:41.963Z,99532.14
2019-03-24T03:45:49.843Z,99533.47
2019-03-24T03:46:57.740Z,99538.31
2019-03-24T03:48:05.975Z,99532.62
2019-03-24T03:49:14.093Z,99536.73
2019-03-24T03:50:22.185Z,99541.29
2019-03-24T03:51:30.237Z,99539.48
2019-03-24T03:52:38.359Z,99542.86
2019-03-24T03:53:46.376Z,99538.86
2019-03-24T03:54:56.105Z,99543.45
2019-03-24T03:56:04.042Z,99547.89
2019-03-24T03:57:12.311Z,99554.09
2019-03-24T03:58:20.475Z,99551.44
2019-03-24T03:59:28.537Z,99556.16
2019-03-24T04:00:37.878Z,99553.98
2019-03-24T04:01:45.759Z,99551.80
2019-03-24T04:02:53.744Z,99562.45
2019-03-24T04:04:01.602Z,99555.43
2019-03-24T04:05:09.742Z,99562.93
2019-03-24T04:06:17.782Z,99555.52
2019-03-24T04:07:25.759Z,99553.33
2019-03-24T04:08:33.567Z,99562.28
2019-03-24T04:09:41.458Z,99560.22
2019-03-24T04:10:49.359Z,99560.59
2019-03-24T04:11:57.332Z,99564.58
2019-03-24T04:13:05.463Z,99561.18
2019-03-24T04:14:13.736Z,99553.03
2019-03-24T04:15:21.684Z,99553.99
2019-03-24T04:16:30.033Z,99553.63
2019-03-24T04:17:38.121Z,99548.98
2019-03-24T04:18:46.428Z,99550.43
2019-03-24T04:19:54.431Z,99549.09
2019-03-24T04:21:02.272Z,99550.55
2019-03-24T04:22:10.327Z,99554.05
2019-03-24T04:23:18.324Z,99549.58
2019-03-24T04:24:26.304Z,99547.41
2019-03-24T04:25:34.405Z,99554.65
2019-03-24T04:26:42.576Z,99561.87
2019-03-24T04:27:50.608Z,99557.39
2019-03-24T04:28:58.548Z,99549.53
2019-03-24T04:30:08.622Z,99547.23
2019-03-24T04:31:16.615Z,99554.84
2019-03-24T04:32:24.581Z,99552.95
2019-03-24T04:33:32.421Z,99559.13
2019-03-24T04:34:40.262Z,99557.63
2019-03-24T04:35:48.598Z,99560.77
2019-03-24T04:36:56.508Z,99562.09
2019-03-24T04:38:04.600Z,99567.05
2019-03-24T04:39:12.800Z,99564.50
2019-03-24T04:40:20.996Z,99560.59
2019-03-24T04:41:28.779Z,99572.48
2019-03-24T04:42:36.681Z,99570.78
2019-03-24T04:43:44.746Z,99574.77
2019-03-24T04:44:52.618Z,99576.11
2019-03-24T04:46:00.544Z,99577.88
2019-03-24T04:47:16.300Z,99583.20
2019-03-24T04:48:18.262Z,99584.45
2019-03-24T04:49:26.268Z,99588.08
2019-03-24T04:50:34.277Z,99583.80
2019-03-24T04:51:41.989Z,99593.70
2019-03-24T04:52:49.946Z,99586.20
2019-03-24T04:53:57.839Z,99591.16
2019-03-24T04:55:07.598Z,99589.54
2019-03-24T04:56:15.589Z,99589.66
2019-03-24T04:57:23.687Z,99589.40
2019-03-24T04:58:31.871Z,99590.24
2019-03-24T04:59:39.805Z,99585.77
2019-03-24T05:00:47.861Z,99583.70
2019-03-24T05:01:56.172Z,99585.77
2019-03-24T05:03:04.272Z,99588.44
2019-03-24T05:04:12.461Z,99588.63
2019-03-24T05:05:20.555Z,99579.54
2019-03-24T05:06:28.746Z,99585.34
2019-03-24T05:07:36.992Z,99580.88
2019-03-24T05:08:46.584Z,99580.98
2019-03-24T05:09:55.333Z,99581.84
2019-03-24T05:11:03.249Z,99581.95
2019-03-24T05:12:11.385Z,99586.30
2019-03-24T05:13:19.388Z,99588.22
2019-03-24T05:14:27.173Z,99589.92
2019-03-24T05:15:35.027Z,99594.77
2019-03-24T05:16:43.062Z,99588.02
2019-03-24T05:17:51.031Z,99592.11
2019-03-24T05:18:59.151Z,99591.38
2019-03-24T05:20:07.988Z,99591.20
2019-03-24T05:21:16.149Z,99594.45
2019-03-24T05:22:24.067Z,99601.09
2019-03-24T05:23:32.253Z,99598.80
2019-03-24T05:24:40.328Z,99598.80
2019-03-24T05:25:48.651Z,99597.73
2019-03-24T05:26:56.754Z,99597.25
2019-03-24T05:28:04.781Z,99594.48
2019-03-24T05:29:13.042Z,99590.34
2019-03-24T05:30:21.140Z,99592.53
2019-03-24T05:31:29.249Z,99592.75
2019-03-24T05:32:37.435Z,99591.31
2019-03-24T05:33:45.434Z,99587.32
2019-03-24T05:34:53.363Z,99594.93
2019-03-24T05:36:01.601Z,99597.48
2019-03-24T05:37:09.844Z,99597.59
2019-03-24T05:38:17.863Z,99597.59
2019-03-24T05:39:26.140Z,99603.76
2019-03-24T05:40:34.049Z,99598.07
2019-03-24T05:41:42.010Z,99605.94
2019-03-24T05:42:50.211Z,99609.44
2019-03-24T05:43:58.730Z,99608.22
2019-03-24T05:45:10.210Z,99607.27
2019-03-24T05:46:18.340Z,99608.11
2019-03-24T05:47:36.635Z,99616.46
2019-03-24T05:48:36.305Z,99617.05
2019-03-24T05:49:44.423Z,99620.56
2019-03-24T05:50:52.522Z,99616.09
2019-03-24T05:52:00.719Z,99618.27
2019-03-24T05:53:08.736Z,99620.08
2019-03-24T05:54:16.825Z,99616.94
2019-03-24T05:55:24.992Z,99613.55
2019-03-24T05:56:33.016Z,99615.80
2019-03-24T05:57:40.896Z,99621.59
2019-03-24T05:58:48.770Z,99623.52
2019-03-24T05:59:56.942Z,99619.16
2019-03-24T06:01:04.962Z,99617.34
2019-03-24T06:02:13.007Z,99615.06
2019-03-24T06:03:21.177Z,99610.59
2019-03-24T06:04:29.290Z,99614.02
2019-03-24T06:05:37.437Z,99614.02
2019-03-24T06:06:45.474Z,99616.69
2019-03-24T06:07:53.679Z,99617.12
2019-03-24T06:09:02.029Z,99615.65
2019-03-24T06:10:10.398Z,99609.85
2019-03-24T06:11:18.560Z,99612.14
2019-03-24T06:12:26.582Z,99617.09
2019-03-24T06:13:35.132Z,99613.84
2019-03-24T06:14:43.155Z,99619.53
2019-03-24T06:15:51.448Z,99611.55
2019-03-24T06:16:59.449Z,99614.58
2019-03-24T06:18:07.591Z,99609.85
2019-03-24T06:19:15.975Z,99609.16
2019-03-24T06:20:24.047Z,99610.41
2019-03-24T06:21:32.452Z,99615.35
2019-03-24T06:22:40.828Z,99617.05
2019-03-24T06:23:48.732Z,99610.89
2019-03-24T06:24:59.012Z,99606.30
2019-03-24T06:26:06.888Z,99613.44
2019-03-24T06:27:15.013Z,99611.99
2019-03-24T06:28:23.505Z,99613.69
2019-03-24T06:29:31.866Z,99617.97
2019-03-24T06:30:40.280Z,99621.38
2019-03-24T06:31:48.803Z,99622.33
2019-03-24T06:32:56.969Z,99623.06
2019-03-24T06:34:05.045Z,99622.22
2019-03-24T06:35:13.294Z,99622.33
2019-03-24T06:36:21.522Z,99623.06
2019-03-24T06:37:29.835Z,99617.86
2019-03-24T06:38:38.206Z,99624.51
2019-03-24T06:39:46.254Z,99619.56
2019-03-24T06:40:54.495Z,99622.70
2019-03-24T06:42:02.668Z,99621.73
2019-03-24T06:43:10.757Z,99618.12
2019-03-24T06:44:19.134Z,99620.41
2019-03-24T06:45:28.751Z,99614.23
2019-03-24T06:46:36.757Z,99610.14
2019-03-24T06:47:45.035Z,99617.97
2019-03-24T06:48:53.371Z,99616.05
2019-03-24T06:50:01.700Z,99611.58
2019-03-24T06:51:09.878Z,99615.46
2019-03-24T06:52:18.115Z,99618.38
2019-03-24T06:53:26.258Z,99617.00
2019-03-24T06:54:34.274Z,99616.41
2019-03-24T06:55:42.444Z,99620.40
2019-03-24T06:56:50.522Z,99621.73
2019-03-24T06:57:59.059Z,99612.31
2019-03-24T06:59:07.405Z,99613.16
2019-03-24T07:00:16.111Z,99613.27
2019-03-24T07:01:24.155Z,99611.72
2019-03-24T07:02:32.640Z,99609.45
2019-03-24T07:03:40.669Z,99611.16
2019-03-24T07:04:48.887Z,99612.00
2019-03-24T07:05:57.423Z,99616.48
2019-03-24T07:07:46.272Z,99610.08
2019-03-24T07:08:54.650Z,99614.86
2019-03-24T07:10:03.031Z,99617.81
2019-03-24T07:11:13.907Z,99617.58
2019-03-24T07:12:21.884Z,99610.20
2019-03-24T07:13:30.592Z,99611.41
2019-03-24T07:14:38.892Z,99614.08
2019-03-24T07:15:46.943Z,99611.05
2019-03-24T07:16:54.898Z,99609.48
2019-03-24T07:18:08.397Z,99608.45
2019-03-24T07:19:13.969Z,99611.00
2019-03-24T07:20:22.064Z,99610.89
2019-03-24T07:21:30.457Z,99612.10
2019-03-24T07:22:38.695Z,99611.55
2019-03-24T07:23:46.889Z,99615.90
2019-03-24T07:24:55.060Z,99617.97
2019-03-24T07:26:03.000Z,99615.93
2019-03-24T07:27:10.954Z,99612.70
2019-03-24T07:28:19.102Z,99619.61
2019-03-24T07:29:27.248Z,99612.23
2019-03-24T07:30:35.651Z,99616.59
2019-03-24T07:31:43.546Z,99614.47
2019-03-24T07:32:51.533Z,99615.57
2019-03-24T07:33:59.654Z,99611.46
2019-03-24T07:35:08.860Z,99612.97
2019-03-24T07:36:17.050Z,99614.19
2019-03-24T07:37:25.254Z,99612.66
2019-03-24T07:38:33.762Z,99610.73
2019-03-24T07:39:42.077Z,99610.50
2019-03-24T07:40:49.938Z,99613.64
2019-03-24T07:41:57.834Z,99605.06
2019-03-24T07:43:05.944Z,99605.06
2019-03-24T07:44:13.858Z,99606.38
2019-03-24T07:45:22.018Z,99606.56
2019-03-24T07:46:30.066Z,99609.94
2019-03-24T07:47:38.211Z,99614.78
2019-03-24T07:48:46.409Z,99601.36
2019-03-24T07:49:54.318Z,99611.16
2019-03-24T07:51:02.442Z,99599.00
2019-03-24T07:52:11.010Z,99601.11
2019-03-24T07:53:20.295Z,99603.77
2019-03-24T07:54:28.166Z,99600.73
2019-03-24T07:55:36.694Z,99599.41
2019-03-24T07:56:44.624Z,99596.15
2019-03-24T07:57:52.635Z,99603.17
2019-03-24T07:59:01.041Z,99601.24
2019-03-24T08:00:12.421Z,99598.58
2019-03-24T08:01:20.387Z,99601.61
2019-03-24T08:02:28.594Z,99602.94
2019-03-24T08:03:36.379Z,99592.21
2019-03-24T08:04:44.308Z,99598.41
2019-03-24T08:05:52.277Z,99593.48
2019-03-24T08:07:00.546Z,99597.36
2019-03-24T08:08:08.671Z,99591.07
2019-03-24T08:09:16.682Z,99601.86
2019-03-24T08:10:24.559Z,99596.70
2019-03-24T08:11:33.064Z,99594.88
2019-03-24T08:12:41.281Z,99599.52
2019-03-24T08:13:53.908Z,99590.57
2019-03-24T08:15:00.088Z,99591.14
2019-03-24T08:16:08.320Z,99591.12
2019-03-24T08:17:16.322Z,99595.84
2019-03-24T08:18:29.858Z,99589.87
2019-03-24T08:19:34.098Z,99588.34
2019-03-24T08:20:42.348Z,99592.47
2019-03-24T08:21:50.440Z,99586.34
2019-03-24T08:22:58.638Z,99582.03
2019-03-24T08:24:06.771Z,99576.95
2019-03-24T08:25:15.470Z,99580.14
2019-03-24T08:26:23.547Z,99573.85
2019-03-24T08:27:31.536Z,99574.37
2019-03-24T08:28:39.974Z,99574.51
2019-03-24T08:29:49.636Z,99565.70
2019-03-24T08:30:57.806Z,99569.10
2019-03-24T08:32:05.924Z,99569.86
2019-03-24T08:33:14.199Z,99570.23
2019-03-24T08:34:22.584Z,99569.63
2019-03-24T08:35:30.831Z,99563.33
2019-03-24T08:36:39.007Z,99572.89
2019-03-24T08:37:47.155Z,99569.18
2019-03-24T08:38:55.505Z,99564.38
2019-03-24T08:40:04.090Z,99558.80
2019-03-24T08:41:12.141Z,99563.41
2019-03-24T08:42:20.587Z,99567.55
2019-03-24T08:43:28.890Z,99562.95
2019-03-24T08:44:36.963Z,99560.08
2019-03-24T08:45:45.077Z,99562.53
2019-03-24T08:46:53.073Z,99553.08
2019-03-24T08:48:01.385Z,99563.77
2019-03-24T08:49:09.991Z,99557.35
2019-03-24T08:50:18.168Z,99565.50
2019-03-24T08:51:26.699Z,99560.98
2019-03-24T08:52:35.225Z,99564.98
2019-03-24T08:53:43.392Z,99567.17
2019-03-24T08:54:51.484Z,99555.69
2019-03-24T08:55:59.433Z,99559.34
2019-03-24T08:57:07.691Z,99551.73
2019-03-24T08:58:15.905Z,99554.88
2019-03-24T08:59:25.231Z,99554.78
2019-03-24T09:00:33.455Z,99539.85
2019-03-24T09:01:41.914Z,99550.66
2019-03-24T09:02:50.176Z,99556.02
2019-03-24T09:03:58.298Z,99545.70
2019-03-24T09:05:08.311Z,99546.44
2019-03-24T09:06:16.332Z,99544.64
2019-03-24T09:07:24.460Z,99548.30
2019-03-24T09:08:32.796Z,99545.28
2019-03-24T09:09:41.595Z,99539.46
2019-03-24T09:10:49.781Z,99539.69
2019-03-24T09:11:57.780Z,99541.39
2019-03-24T09:13:06.824Z,99537.16
2019-03-24T09:14:15.316Z,99537.50
2019-03-24T09:15:23.228Z,99535.23
2019-03-24T09:16:31.655Z,99528.29
2019-03-24T09:17:41.389Z,99532.30
2019-03-24T09:18:52.873Z,99528.55
2019-03-24T09:19:59.061Z,99529.63
2019-03-24T09:21:07.580Z,99521.75
2019-03-24T09:22:15.699Z,99527.45
2019-03-24T09:23:23.874Z,99515.33
2019-03-24T09:24:32.182Z,99523.44
2019-03-24T09:25:40.728Z,99518.94
2019-03-24T09:26:48.795Z,99516.27
2019-03-24T09:27:57.095Z,99520.28
2019-03-24T09:29:05.188Z,99514.84
2019-03-24T09:30:34.973Z,99520.54
2019-03-24T09:31:43.296Z,99511.05
2019-03-24T09:32:51.513Z,99517.95
2019-03-24T09:33:59.891Z,99517.45
2019-03-24T09:35:08.875Z,99516.08
2019-03-24T09:36:17.104Z,99512.42
2019-03-24T09:37:25.109Z,99519.09
2019-03-24T09:38:33.103Z,99511.90
2019-03-24T09:39:41.582Z,99519.06
2019-03-24T09:40:49.512Z,99515.27
2019-03-24T09:41:57.500Z,99513.78
2019-03-24T09:43:07.313Z,99507.95
2019-03-24T09:44:15.526Z,99511.59
2019-03-24T09:45:23.722Z,99514.13
2019-03-24T09:46:31.757Z,99512.52
2019-03-24T09:47:40.470Z,99517.84
2019-03-24T09:48:48.531Z,99512.72
2019-03-24T09:49:56.431Z,99512.83
2019-03-24T09:51:04.603Z,99510.73
2019-03-24T09:52:12.919Z,99505.70
2019-03-24T09:53:20.973Z,99501.17
2019-03-24T09:54:29.114Z,99499.81
2019-03-24T09:55:37.295Z,99498.47
2019-03-24T09:56:45.513Z,99501.05
2019-03-24T09:57:53.616Z,99501.51
2019-03-24T09:59:02.135Z,99492.00
2019-03-24T10:00:11.084Z,99498.69
2019-03-24T10:01:19.185Z,99491.97
2019-03-24T10:02:27.273Z,99493.14
2019-03-24T10:03:35.378Z,99487.82
2019-03-24T10:04:43.620Z,99483.00
2019-03-24T10:05:51.720Z,99486.72
2019-03-24T10:07:00.005Z,99485.05
2019-03-24T10:08:08.255Z,99481.70
2019-03-24T10:09:16.315Z,99484.05
2019-03-24T10:10:24.808Z,99476.66
2019-03-24T10:11:33.224Z,99480.69
2019-03-24T10:12:41.682Z,99474.67
2019-03-24T10:13:49.842Z,99480.30
2019-03-24T10:14:57.863Z,99470.64
2019-03-24T10:16:06.013Z,99471.48
2019-03-24T10:17:14.626Z,99467.75
2019-03-24T10:18:23.089Z,99468.68
2019-03-24T10:19:31.190Z,99470.42
2019-03-24T10:20:39.324Z,99464.23
2019-03-24T10:21:47.732Z,99469.23
2019-03-24T10:22:55.937Z,99458.68
2019-03-24T10:24:04.026Z,99465.67
2019-03-24T10:25:12.474Z,99457.51
2019-03-24T10:26:20.484Z,99449.91
2019-03-24T10:27:28.733Z,99454.17
2019-03-24T10:28:36.931Z,99450.70
2019-03-24T10:29:45.281Z,99452.78
2019-03-24T10:30:53.744Z,99458.42
2019-03-24T10:32:01.915Z,99451.22
2019-03-24T10:33:10.179Z,99450.75
2019-03-24T10:34:18.951Z,99456.66
2019-03-24T10:35:27.195Z,99450.27
2019-03-24T10:36:35.349Z,99448.64
2019-03-24T10:37:43.475Z,99450.62
2019-03-24T10:38:51.546Z,99439.28
2019-03-24T10:39:59.637Z,99438.73
2019-03-24T10:41:07.646Z,99432.33
2019-03-24T10:42:16.073Z,99431.61
2019-03-24T10:43:24.066Z,99434.44
2019-03-24T10:44:32.243Z,99420.02
2019-03-24T10:45:40.170Z,99423.63
2019-03-24T10:46:48.457Z,99424.33
2019-03-24T10:47:56.617Z,99418.29
2019-03-24T10:49:05.036Z,99418.81
2019-03-24T10:50:14.755Z,99416.98
2019-03-24T10:51:24.615Z,99421.16
2019-03-24T10:52:33.131Z,99413.53
2019-03-24T10:53:41.206Z,99410.27
2019-03-24T10:54:49.569Z,99412.75
2019-03-24T10:55:57.960Z,99406.78
2019-03-24T10:57:06.583Z,99402.64
2019-03-24T10:58:15.035Z,99403.92
2019-03-24T10:59:23.078Z,99407.48
2019-03-24T11:00:43.049Z,99402.69
2019-03-24T11:01:51.200Z,99402.72
2019-03-24T11:02:59.408Z,99408.63
2019-03-24T11:04:08.215Z,99401.97
2019-03-24T11:05:16.411Z,99400.83
2019-03-24T11:06:24.619Z,99399.30
2019-03-24T11:07:32.761Z,99394.28
2019-03-24T11:08:40.908Z,99399.34
2019-03-24T11:09:49.513Z,99389.00
2019-03-24T11:10:57.729Z,99382.40
2019-03-24T11:12:05.907Z,99383.64
2019-03-24T11:13:15.372Z,99389.26
2019-03-24T11:14:24.016Z,99373.18
2019-03-24T11:15:32.095Z,99378.64
2019-03-24T11:16:40.529Z,99377.33
2019-03-24T11:17:48.784Z,99373.30
2019-03-24T11:18:56.991Z,99366.67
2019-03-24T11:20:08.566Z,99362.22
2019-03-24T11:21:16.832Z,99362.41
2019-03-24T11:22:25.107Z,99361.44
2019-03-24T11:23:33.241Z,99360.14
2019-03-24T11:24:41.667Z,99360.84
2019-03-24T11:25:50.170Z,99350.64
2019-03-24T11:26:58.241Z,99355.19
2019-03-24T11:28:06.429Z,99350.65
2019-03-24T11:29:14.582Z,99348.19
2019-03-24T11:30:23.168Z,99346.09
2019-03-24T11:31:31.730Z,99349.81
2019-03-24T11:32:40.053Z,99338.78
2019-03-24T11:33:48.871Z,99345.84
2019-03-24T11:34:57.264Z,99343.84
2019-03-24T11:36:05.936Z,99342.00
2019-03-24T11:37:14.301Z,99341.00
2019-03-24T11:38:22.984Z,99331.25
2019-03-24T11:39:31.063Z,99332.23
2019-03-24T11:40:39.201Z,99336.20
2019-03-24T11:41:47.411Z,99331.98
2019-03-24T11:42:55.397Z,99329.72
2019-03-24T11:44:03.759Z,99321.31
2019-03-24T11:45:14.349Z,99325.34
2019-03-24T11:46:23.331Z,99323.16
2019-03-24T11:47:31.382Z,99323.84
2019-03-24T11:48:39.550Z,99314.30
2019-03-24T11:49:49.429Z,99314.87
2019-03-24T11:50:57.382Z,99316.09
2019-03-24T11:52:07.123Z,99305.57
2019-03-24T11:53:15.089Z,99305.91
2019-03-24T11:54:23.411Z,99300.70
2019-03-24T11:55:31.752Z,99305.19
2019-03-24T11:56:40.104Z,99295.45
2019-03-24T11:57:48.269Z,99291.80
2019-03-24T11:58:56.259Z,99285.83
2019-03-24T12:00:13.361Z,99285.92
2019-03-24T12:01:21.730Z,99277.35
2019-03-24T12:02:30.075Z,99284.55
2019-03-24T12:03:38.032Z,99276.51
2019-03-24T12:04:46.224Z,99281.52
2019-03-24T12:05:54.622Z,99278.06
2019-03-24T12:07:03.316Z,99283.73
2019-03-24T12:08:11.545Z,99282.98
2019-03-24T12:09:19.731Z,99272.83
2019-03-24T12:10:28.017Z,99273.27
2019-03-24T12:11:37.161Z,99271.27
2019-03-24T12:12:45.381Z,99264.47
2019-03-24T12:13:53.772Z,99263.42
2019-03-24T12:15:01.867Z,99261.23
2019-03-24T12:16:10.059Z,99260.58
2019-03-24T12:17:19.093Z,99258.91
2019-03-24T12:18:27.210Z,99254.72
2019-03-24T12:19:35.353Z,99255.77
2019-03-24T12:20:43.656Z,99249.89
2019-03-24T12:21:52.486Z,99250.02
2019-03-24T12:23:00.756Z,99244.98
2019-03-24T12:24:08.804Z,99246.97
2019-03-24T12:25:17.072Z,99241.52
2019-03-24T12:26:25.481Z,99234.91
2019-03-24T12:27:33.705Z,99236.26
2019-03-24T12:28:42.271Z,99235.00
2019-03-24T12:29:50.432Z,99237.58
2019-03-24T12:30:59.434Z,99225.38
2019-03-24T12:32:07.979Z,99216.87
2019-03-24T12:33:16.533Z,99219.58
2019-03-24T12:34:24.976Z,99214.63
2019-03-24T12:35:32.846Z,99213.04
2019-03-24T12:36:41.110Z,99209.95
2019-03-24T12:37:49.338Z,99210.14
2019-03-24T12:38:57.654Z,99208.52
2019-03-24T12:40:08.596Z,99200.19
2019-03-24T12:41:16.927Z,99196.92
2019-03-24T12:42:25.016Z,99195.97
2019-03-24T12:43:33.080Z,99194.61
2019-03-24T12:44:41.457Z,99189.45
2019-03-24T12:45:49.727Z,99188.39
2019-03-24T12:46:58.125Z,99181.65
2019-03-24T12:48:06.170Z,99178.58
2019-03-24T12:49:14.338Z,99176.79
2019-03-24T12:50:30.894Z,99172.84
2019-03-24T12:51:32.245Z,99170.83
2019-03-24T12:52:41.127Z,99168.86
2019-03-24T12:53:49.198Z,99168.14
2019-03-24T12:54:57.318Z,99162.09
2019-03-24T12:56:05.642Z,99160.55
2019-03-24T12:57:13.708Z,99155.44
2019-03-24T12:58:23.060Z,99157.68
2019-03-24T12:59:31.182Z,99155.18
2019-03-24T13:00:40.622Z,99144.16
2019-03-24T13:01:48.683Z,99145.86
2019-03-24T13:02:56.995Z,99145.18
2019-03-24T13:04:05.178Z,99141.84
2019-03-24T13:05:13.901Z,99142.64
2019-03-24T13:06:22.173Z,99138.73
2019-03-24T13:07:30.363Z,99138.89
2019-03-24T13:08:38.089Z,99135.29
2019-03-24T13:09:46.276Z,99129.71
2019-03-24T13:10:54.604Z,99133.27
2019-03-24T13:12:02.706Z,99130.39
2019-03-24T13:13:12.170Z,99127.06
2019-03-24T13:14:20.832Z,99124.26
2019-03-24T13:15:29.202Z,99122.13
2019-03-24T13:16:37.310Z,99126.11
2019-03-24T13:17:45.430Z,99121.25
2019-03-24T13:18:53.627Z,99119.66
2019-03-24T13:20:01.959Z,99115.57
2019-03-24T13:21:09.897Z,99117.11
2019-03-24T13:22:18.116Z,99118.85
2019-03-24T13:23:26.055Z,99107.52